Time;durP1;ratioP1;P1;durP2;ratioP2;P2;SDS_P1;SDS_P2;PMS_P1;PMS_P2;Temp;Humidity;BMP_temperature;BMP_pressure;BME280_temperature;BME280_humidity;BME280_pressure;Samples;Min_cycle;Max_cycle;Signal;HPM_P1;HPM_P2
2023/04/26 00:00:19;;;;;;;13.80;3.20;;;2.70;72.30;;;;;;6216234;23;20103;-88
2023/04/26 00:02:45;;;;;;;13.13;3.57;;;2.70;72.50;;;;;;6213881;23;20043;-89
2023/04/26 00:05:11;;;;;;;14.57;3.40;;;2.70;72.50;;;;;;6216219;23;20031;-89
2023/04/26 00:07:40;;;;;;;9.90;2.73;;;2.70;72.90;;;;;;6185460;23;20035;-90
2023/04/26 00:10:15;;;;;;;7.33;2.27;;;2.80;73.00;;;;;;6202900;23;20319;-93
2023/04/26 00:12:41;;;;;;;11.80;2.77;;;2.80;73.00;;;;;;6213479;23;20027;-89
2023/04/26 00:15:10;;;;;;;13.83;2.67;;;2.90;72.60;;;;;;6190994;23;20016;-89
2023/04/26 00:17:36;;;;;;;14.13;3.07;;;2.90;72.50;;;;;;6196200;23;20377;-90
2023/04/26 00:20:05;;;;;;;5.87;2.60;;;3.00;72.40;;;;;;6218768;23;20020;-89
2023/04/26 00:22:33;;;;;;;9.53;2.47;;;3.00;72.30;;;;;;6192115;23;20454;-90
2023/04/26 00:24:59;;;;;;;9.07;2.50;;;3.00;72.20;;;;;;6217977;23;20393;-89
2023/04/26 00:27:25;;;;;;;6.87;2.50;;;3.00;72.30;;;;;;6210890;22;20031;-89
2023/04/26 00:29:51;;;;;;;11.60;3.00;;;2.90;72.20;;;;;;6221156;23;20023;-89
2023/04/26 01:35:55;;;;;;;17.77;3.53;;;2.50;72.80;;;;;;5874379;24;20044;-93
2023/04/26 01:39:08;;;;;;;15.30;3.63;;;2.50;73.00;;;;;;5984411;23;20391;-95
2023/04/26 01:42:01;;;;;;;13.03;3.93;;;2.50;73.00;;;;;;6082088;23;20466;-93
2023/04/26 01:44:50;;;;;;;16.13;4.10;;;2.50;73.20;;;;;;6126807;23;20032;-93
2023/04/26 01:47:18;;;;;;;13.73;3.47;;;2.40;73.00;;;;;;6120846;23;20045;-94
2023/04/26 01:54:17;;;;;;;18.43;3.90;;;2.40;73.40;;;;;;6063932;23;20096;-96
2023/04/26 01:56:55;;;;;;;8.70;2.30;;;2.50;73.80;;;;;;6101535;23;20021;-94
2023/04/26 01:59:53;;;;;;;13.43;3.07;;;2.50;72.40;;;;;;6211272;23;20032;-93
2023/04/26 02:38:46;;;;;;;14.10;3.20;;;2.70;73.00;;;;;;6275229;22;20441;-93
2023/04/26 02:41:30;;;;;;;12.33;3.20;;;2.60;73.00;;;;;;6222344;22;20020;-93
2023/04/26 02:43:58;;;;;;;14.53;3.17;;;2.50;73.10;;;;;;6221063;22;20349;-94
2023/04/26 02:47:08;;;;;;;10.50;3.07;;;2.50;73.20;;;;;;6195181;22;20044;-95
2023/04/26 02:49:42;;;;;;;16.73;2.90;;;2.50;73.20;;;;;;6168242;23;20046;-94
2023/04/26 02:52:41;;;;;;;11.53;2.90;;;2.50;73.10;;;;;;6192065;23;20020;-94
2023/04/26 02:55:45;;;;;;;11.77;2.53;;;2.60;73.30;;;;;;6140983;23;20028;-94
2023/04/26 02:58:14;;;;;;;9.80;2.60;;;2.60;73.20;;;;;;6149974;23;20024;-93
2023/04/26 03:04:49;;;;;;;;;;;;;;;;;;;;;
2023/04/26 03:07:17;;;;;;;;;;;2.70;72.70;;;;;;5954968;23;20099;-94
2023/04/26 03:13:38;;;;;;;8.03;2.97;;;2.80;72.60;;;;;;6126779;23;20482;-94
2023/04/26 03:16:41;;;;;;;13.90;3.10;;;2.80;72.60;;;;;;6088149;23;20026;-93
2023/04/26 03:19:20;;;;;;;10.27;2.63;;;2.80;72.90;;;;;;6146254;22;20025;-94
2023/04/26 03:22:15;;;;;;;13.13;2.97;;;2.80;72.70;;;;;;6193100;23;20027;-93
2023/04/26 03:24:46;;;;;;;10.70;3.07;;;2.80;72.80;;;;;;6190436;23;20024;-93
2023/04/26 03:27:30;;;;;;;7.97;2.65;;;2.80;72.80;;;;;;6212010;23;20020;-93
2023/04/26 03:30:12;;;;;;;8.33;2.80;;;2.80;72.90;;;;;;6243320;23;20031;-94
2023/04/26 03:32:45;;;;;;;8.90;2.80;;;2.80;72.90;;;;;;6218689;23;20020;-94
2023/04/26 03:35:18;;;;;;;7.40;2.50;;;2.80;73.00;;;;;;6217117;23;20050;-93
2023/04/26 03:42:37;;;;;;;6.43;2.50;;;2.90;73.10;;;;;;6124107;23;20393;-94
2023/04/26 03:45:18;;;;;;;10.83;2.73;;;2.90;73.30;;;;;;6069867;23;20025;-93
2023/04/26 03:48:40;;;;;;;8.27;2.80;;;2.90;73.30;;;;;;6042639;23;20042;-94
2023/04/26 03:54:45;;;;;;;8.37;2.30;;;2.80;73.50;;;;;;6055799;23;20069;-93
2023/04/26 03:57:11;;;;;;;10.40;3.20;;;2.80;73.40;;;;;;6048202;23;20445;-91
2023/04/26 03:59:36;;;;;;;11.00;2.63;;;2.90;73.50;;;;;;6177851;23;20051;-91
2023/04/26 04:02:56;;;;;;;9.20;2.83;;;2.90;73.60;;;;;;6242214;22;20095;-90
2023/04/26 04:05:22;;;;;;;7.60;2.40;;;3.00;73.90;;;;;;6211050;23;20020;-96
2023/04/26 04:07:55;;;;;;;10.27;2.60;;;3.00;73.90;;;;;;6210587;23;20020;-93
2023/04/26 04:10:22;;;;;;;11.80;2.73;;;3.00;73.90;;;;;;6216026;23;20435;-92
2023/04/26 04:12:48;;;;;;;8.90;2.57;;;3.10;74.20;;;;;;6190435;23;20020;-93
2023/04/26 04:15:22;;;;;;;12.63;2.73;;;3.10;74.00;;;;;;6242470;23;20083;-93
2023/04/26 04:18:28;;;;;;;11.00;2.30;;;3.10;74.00;;;;;;6213538;23;20481;-94
2023/04/26 04:21:12;;;;;;;8.13;3.07;;;3.10;74.10;;;;;;6219839;23;20061;-96
2023/04/26 05:24:36;;;;;;;7.53;3.37;;;3.10;73.70;;;;;;6091932;23;20029;-93
2023/04/26 05:27:36;;;;;;;10.03;3.43;;;3.10;73.20;;;;;;6022971;23;20019;-93
2023/04/26 05:30:04;;;;;;;10.93;3.53;;;3.10;73.20;;;;;;6032006;23;20026;-93
2023/04/26 05:32:32;;;;;;;8.63;3.13;;;3.10;73.20;;;;;;6067626;23;20030;-92
2023/04/26 05:34:58;;;;;;;11.00;3.57;;;3.20;73.20;;;;;;6069810;23;20078;-94
2023/04/26 05:37:24;;;;;;;10.93;3.37;;;3.30;73.50;;;;;;6097664;23;20520;-92
2023/04/26 05:42:45;;;;;;;9.27;2.77;;;3.60;73.70;;;;;;6195757;23;20019;-95
2023/04/26 05:45:12;;;;;;;8.93;2.97;;;3.70;73.40;;;;;;6192499;23;20020;-92
2023/04/26 05:47:37;;;;;;;14.17;3.30;;;3.90;73.40;;;;;;6205278;23;20024;-88
2023/04/26 05:50:04;;;;;;;8.27;2.60;;;3.90;73.10;;;;;;6187713;23;20012;-88
2023/04/26 05:52:30;;;;;;;7.40;2.63;;;3.90;73.20;;;;;;6189551;23;20503;-93
2023/04/26 05:54:55;;;;;;;7.93;2.67;;;4.00;72.70;;;;;;6193434;23;20016;-92
2023/04/26 05:57:41;;;;;;;5.73;2.17;;;4.10;72.90;;;;;;6205349;23;20095;-92
2023/04/26 06:00:14;;;;;;;8.50;2.60;;;4.10;72.40;;;;;;6171214;23;20020;-93
2023/04/26 06:07:02;;;;;;;9.27;2.87;;;4.30;72.70;;;;;;6181358;23;20024;-93
2023/04/26 06:09:38;;;;;;;10.40;2.77;;;4.40;71.90;;;;;;6166548;23;20035;-92
2023/04/26 06:12:22;;;;;;;7.03;2.37;;;4.50;71.80;;;;;;6194469;22;20024;-94
2023/04/26 06:15:00;;;;;;;7.80;2.40;;;4.60;72.10;;;;;;6167754;23;20020;-94
2023/04/26 06:17:28;;;;;;;8.47;2.30;;;4.70;71.70;;;;;;6168205;23;20131;-94
2023/04/26 06:19:57;;;;;;;7.27;2.00;;;4.80;71.10;;;;;;6190796;23;20038;-93
2023/04/26 06:22:51;;;;;;;10.73;2.37;;;4.90;70.50;;;;;;6190488;23;20583;-94
2023/04/26 06:25:44;;;;;;;10.70;2.90;;;4.90;70.10;;;;;;6191639;23;20035;-94
2023/04/26 06:28:19;;;;;;;6.55;2.17;;;5.00;69.90;;;;;;6144677;23;20035;-92
2023/04/26 06:30:45;;;;;;;6.30;2.30;;;5.00;70.10;;;;;;6218508;23;20016;-93
2023/04/26 06:33:10;;;;;;;5.90;2.30;;;5.10;69.70;;;;;;6171409;23;20544;-95
2023/04/26 06:35:42;;;;;;;7.87;2.40;;;5.10;69.50;;;;;;6142668;23;20442;-95
2023/04/26 06:38:08;;;;;;;8.17;2.60;;;5.00;69.10;;;;;;6183480;23;20343;-93
2023/04/26 06:40:42;;;;;;;8.73;2.80;;;5.10;69.60;;;;;;6167715;23;20093;-95
2023/04/26 06:43:07;;;;;;;9.40;2.70;;;5.20;69.90;;;;;;6163401;23;20455;-91
2023/04/26 06:45:59;;;;;;;10.17;2.70;;;5.30;70.00;;;;;;6189948;23;20020;-93
2023/04/26 06:48:28;;;;;;;13.43;3.10;;;5.50;69.30;;;;;;6156714;23;20490;-93
2023/04/26 06:51:33;;;;;;;;;;;;;;;;;;;;;
2023/04/26 06:54:05;;;;;;;7.68;2.67;;;5.50;69.40;;;;;;6072981;23;20022;-94
2023/04/26 07:00:52;;;;;;;7.60;2.97;;;5.50;69.60;;;;;;5990934;23;20030;-96
2023/04/26 07:11:53;;;;;;;;;;;;;;;;;;;;;
2023/04/26 07:14:42;;;;;;;11.37;2.97;;;5.80;69.90;;;;;;5940860;24;20055;-92
2023/04/26 07:24:17;;;;;;;6.50;2.30;;;6.20;67.00;;;;;;5978349;23;20276;-95
2023/04/26 07:27:15;;;;;;;9.77;2.43;;;6.30;67.60;;;;;;5990097;23;20023;-96
2023/04/26 07:29:41;;;;;;;9.33;2.60;;;6.50;67.10;;;;;;5915510;23;20024;-89
2023/04/26 07:32:07;;;;;;;10.43;2.40;;;6.70;68.00;;;;;;6061813;23;20032;-90
2023/04/26 07:34:33;;;;;;;8.30;2.57;;;6.90;68.70;;;;;;6104091;23;20025;-90
2023/04/26 07:37:48;;;;;;;8.63;2.10;;;7.10;68.50;;;;;;6091331;23;20522;-96
2023/04/26 07:40:31;;;;;;;11.23;2.60;;;7.20;67.10;;;;;;6101939;23;20016;-95
2023/04/26 07:42:57;;;;;;;8.20;2.60;;;7.20;65.70;;;;;;6108547;23;20013;-88
2023/04/26 07:45:23;;;;;;;11.13;2.90;;;7.30;66.80;;;;;;6164910;23;20017;-88
2023/04/26 07:47:49;;;;;;;9.40;2.20;;;7.50;66.20;;;;;;6109433;23;20097;-94
2023/04/26 07:50:41;;;;;;;8.30;2.57;;;7.50;63.10;;;;;;6173810;23;20020;-95
2023/04/26 07:53:26;;;;;;;;;;;;;;;;;;;;;
2023/04/26 07:56:07;;;;;;;8.07;2.70;;;7.60;63.50;;;;;;6128624;23;20103;-93
2023/04/26 07:58:41;;;;;;;7.30;2.45;;;7.30;65.00;;;;;;6077345;23;20100;-91
2023/04/26 08:01:16;;;;;;;12.83;2.93;;;7.00;65.00;;;;;;6105438;23;20032;-93
2023/04/26 08:03:42;;;;;;;11.77;2.43;;;6.70;65.90;;;;;;6078855;23;20026;-93
2023/04/26 08:06:07;;;;;;;9.17;2.80;;;6.40;66.20;;;;;;6131032;23;20018;-93
2023/04/26 08:08:41;;;;;;;9.63;2.73;;;6.40;67.00;;;;;;6081163;23;20080;-94
2023/04/26 08:11:08;;;;;;;9.90;2.97;;;6.30;67.20;;;;;;6129785;23;20485;-95
2023/04/26 08:13:37;;;;;;;11.60;2.80;;;6.30;66.50;;;;;;6104284;23;20040;-95
2023/04/26 08:16:11;;;;;;;11.53;3.10;;;6.40;66.90;;;;;;6133293;23;20014;-93
2023/04/26 08:19:25;;;;;;;10.30;2.70;;;6.60;66.80;;;;;;5058102;27;20389;-93
2023/04/26 08:21:51;;;;;;;12.87;2.67;;;6.80;66.00;;;;;;5036432;28;20053;-91
2023/04/26 08:24:32;;;;;;;12.00;2.70;;;6.90;65.60;;;;;;5056516;28;21410;-95
2023/04/26 08:27:36;;;;;;;15.57;2.78;;;7.00;63.70;;;;;;5028207;28;20063;-95
2023/04/26 08:30:17;;;;;;;12.10;2.37;;;7.00;63.90;;;;;;4993447;28;20119;-94
2023/04/26 08:32:44;;;;;;;;;;;7.00;63.70;;;;;;5051933;28;20059;-92
2023/04/26 08:35:12;;;;;;;8.27;2.37;;;7.00;61.40;;;;;;5034271;28;19928;-94
2023/04/26 08:37:38;;;;;;;9.70;2.63;;;7.00;64.60;;;;;;5038551;28;20048;-92
2023/04/26 08:40:11;;;;;;;11.67;2.90;;;7.20;65.20;;;;;;5071217;28;20087;-91
2023/04/26 08:42:45;;;;;;;13.50;3.07;;;7.30;65.60;;;;;;5036632;28;20045;-94
2023/04/26 08:45:17;;;;;;;11.57;3.23;;;7.40;65.70;;;;;;5053159;28;20091;-92
2023/04/26 08:51:41;;;;;;;13.43;3.07;;;7.40;63.70;;;;;;5053988;28;20055;-93
2023/04/26 08:54:22;;;;;;;;;;;7.00;64.70;;;;;;5047454;28;20767;-92
2023/04/26 08:57:17;;;;;;;7.63;2.50;;;6.80;65.70;;;;;;5051066;28;20610;-96
2023/04/26 08:59:52;;;;;;;13.03;2.87;;;6.50;65.20;;;;;;5039373;28;20064;-94
2023/04/26 09:02:25;;;;;;;10.93;3.03;;;6.30;65.90;;;;;;5048260;28;20127;-96
2023/04/26 09:05:00;;;;;;;10.17;3.10;;;6.20;66.20;;;;;;5047047;28;20059;-94
2023/04/26 09:07:39;;;;;;;8.97;2.90;;;6.10;66.80;;;;;;5010349;28;20073;-96
2023/04/26 09:10:25;;;;;;;11.00;3.20;;;6.00;66.50;;;;;;5048290;28;21192;-95
2023/04/26 09:12:55;;;;;;;14.80;3.33;;;5.90;66.80;;;;;;5028961;28;20190;-91
2023/04/26 09:15:26;;;;;;;12.63;2.97;;;5.90;67.10;;;;;;5031452;28;20048;-93
2023/04/26 09:17:52;;;;;;;;;;;6.00;67.00;;;;;;5037883;28;20086;-91
2023/04/26 09:20:32;;;;;;;13.57;3.27;;;6.00;67.30;;;;;;5045883;28;19959;-93
2023/04/26 09:30:22;;;;;;;10.27;2.90;;;6.40;67.00;;;;;;5054010;28;20059;-93
2023/04/26 09:33:03;;;;;;;16.83;3.47;;;6.60;66.90;;;;;;5018961;28;20159;-93
2023/04/26 09:35:54;;;;;;;8.82;2.40;;;6.90;67.70;;;;;;5053548;28;20044;-96
2023/04/26 09:38:20;;;;;;;7.00;1.80;;;7.20;66.60;;;;;;5037948;28;20887;-94
2023/04/26 09:40:49;;;;;;;8.30;1.70;;;7.50;66.70;;;;;;5049308;28;20064;-90
2023/04/26 09:43:19;;;;;;;12.97;1.57;;;7.60;66.10;;;;;;5045553;28;20051;-94
2023/04/26 09:46:16;;;;;;;8.43;1.77;;;7.60;65.80;;;;;;5039187;28;20072;-95
2023/04/26 09:48:41;;;;;;;9.90;2.00;;;7.70;64.70;;;;;;5047381;28;20053;-94
2023/04/26 09:51:13;;;;;;;10.27;2.07;;;7.60;63.90;;;;;;5035210;28;20052;-92
2023/04/26 09:53:46;;;;;;;11.43;2.17;;;7.60;64.70;;;;;;5021490;28;20182;-93
2023/04/26 09:56:14;;;;;;;9.13;1.80;;;7.70;65.40;;;;;;5053796;28;20060;-94
2023/04/26 09:59:12;;;;;;;4.57;1.37;;;7.70;63.40;;;;;;5030062;28;20048;-94
2023/04/26 10:01:38;;;;;;;5.73;1.90;;;7.60;62.20;;;;;;5053515;28;20052;-95
2023/04/26 10:04:10;;;;;;;7.50;1.60;;;7.50;62.50;;;;;;5034153;28;20136;-94
2023/04/26 10:06:44;;;;;;;7.73;1.60;;;7.50;64.20;;;;;;5037261;28;20111;-95
2023/04/26 10:12:19;;;;;;;3.87;1.30;;;7.90;64.60;;;;;;5041182;28;20142;-94
2023/04/26 10:14:47;;;;;;;9.03;1.63;;;8.60;65.30;;;;;;5043664;28;20049;-91
2023/04/26 10:17:13;;;;;;;10.73;2.40;;;9.00;64.90;;;;;;5049917;28;20056;-94
2023/04/26 10:19:45;;;;;;;9.07;1.77;;;9.00;65.10;;;;;;5027664;28;20071;-91
2023/04/26 10:22:22;;;;;;;7.47;1.60;;;8.90;64.90;;;;;;5059714;28;20178;-91
2023/04/26 10:24:56;;;;;;;8.20;1.80;;;8.60;65.00;;;;;;5062401;28;20693;-94
2023/04/26 10:27:42;;;;;;;8.30;2.10;;;8.50;65.50;;;;;;5056280;28;20056;-92
2023/04/26 10:30:17;;;;;;;12.70;1.90;;;8.40;65.20;;;;;;5045363;28;20048;-92
2023/04/26 10:33:00;;;;;;;8.00;1.67;;;8.40;65.80;;;;;;5031934;28;20057;-92
2023/04/26 10:35:59;;;;;;;5.57;1.60;;;8.40;65.00;;;;;;5065080;28;20097;-93
2023/04/26 10:38:25;;;;;;;7.43;1.37;;;8.40;62.90;;;;;;5044819;28;20127;-92
2023/04/26 10:40:51;;;;;;;9.87;1.70;;;8.40;64.20;;;;;;5050381;28;20109;-95
2023/04/26 10:43:18;;;;;;;5.03;1.23;;;8.40;63.90;;;;;;5045534;28;20599;-93
2023/04/26 10:45:50;;;;;;;9.23;1.30;;;8.40;61.70;;;;;;5044936;28;20251;-94
2023/04/26 10:48:17;;;;;;;6.50;1.50;;;8.40;61.70;;;;;;5045925;28;20385;-94
2023/04/26 10:51:03;;;;;;;4.63;1.50;;;8.40;62.20;;;;;;5056143;28;20048;-92
2023/04/26 10:53:52;;;;;;;8.80;1.60;;;8.60;63.00;;;;;;5047559;28;20131;-92
2023/04/26 10:56:33;;;;;;;9.93;1.40;;;8.80;63.60;;;;;;5050976;28;20059;-93
2023/04/26 10:59:11;;;;;;;6.60;1.67;;;8.90;61.00;;;;;;5040868;28;20044;-96
2023/04/26 11:01:39;;;;;;;5.07;1.27;;;9.00;60.60;;;;;;5076794;28;20052;-94
2023/04/26 11:04:17;;;;;;;4.65;1.17;;;9.00;60.90;;;;;;4997026;28;21313;-93
2023/04/26 11:06:49;;;;;;;6.30;1.73;;;9.00;60.40;;;;;;5055943;28;20052;-93
2023/04/26 11:09:47;;;;;;;6.47;1.73;;;8.90;57.70;;;;;;5027413;28;20056;-90
2023/04/26 11:12:15;;;;;;;5.10;1.50;;;8.70;57.20;;;;;;5019559;28;21433;-92
2023/04/26 11:14:41;;;;;;;6.93;1.70;;;8.80;59.50;;;;;;5036817;28;20036;-88
2023/04/26 11:17:08;;;;;;;7.30;1.43;;;8.90;59.80;;;;;;5029613;28;20032;-87
2023/04/26 11:19:34;;;;;;;4.93;1.47;;;9.20;60.70;;;;;;5049318;28;20157;-90
2023/04/26 11:22:01;;;;;;;6.57;1.40;;;9.30;61.00;;;;;;5028506;28;20108;-92
2023/04/26 11:24:35;;;;;;;5.93;1.40;;;9.50;61.00;;;;;;5048567;28;20087;-93
2023/04/26 11:27:13;;;;;;;5.80;1.70;;;9.80;60.50;;;;;;5033769;28;20055;-92
2023/04/26 11:29:44;;;;;;;8.33;1.50;;;10.00;60.00;;;;;;5036869;28;20049;-94
2023/04/26 11:32:11;;;;;;;6.43;1.40;;;10.10;60.20;;;;;;5011498;28;20049;-88
2023/04/26 11:34:38;;;;;;;6.03;1.43;;;10.30;60.00;;;;;;5039763;28;21017;-91
2023/04/26 11:37:05;;;;;;;5.77;1.30;;;10.30;60.00;;;;;;4996118;28;20056;-89
2023/04/26 11:39:35;;;;;;;4.97;1.37;;;10.40;60.30;;;;;;5019561;28;20063;-89
2023/04/26 11:42:10;;;;;;;5.07;1.43;;;10.40;60.00;;;;;;5027936;28;20141;-90
2023/04/26 11:44:37;;;;;;;5.27;1.10;;;10.50;59.90;;;;;;5041077;28;20192;-86
2023/04/26 11:47:06;;;;;;;6.00;1.00;;;10.50;59.80;;;;;;5015231;28;20106;-89
2023/04/26 11:49:35;;;;;;;6.73;1.17;;;10.50;56.80;;;;;;5037166;28;20542;-89
2023/04/26 11:52:03;;;;;;;5.13;0.97;;;10.50;58.60;;;;;;5036807;28;21382;-88
2023/04/26 11:54:36;;;;;;;4.63;1.40;;;10.60;59.30;;;;;;5007533;28;20449;-88
2023/04/26 11:57:18;;;;;;;7.10;1.43;;;10.70;59.40;;;;;;5045140;28;20062;-88
2023/04/26 11:59:44;;;;;;;;;;;10.80;60.00;;;;;;5063626;28;20206;-92
2023/04/26 12:02:10;;;;;;;13.03;2.00;;;10.90;57.90;;;;;;5039919;28;19920;-94
2023/04/26 12:05:02;;;;;;;6.87;1.10;;;10.90;59.70;;;;;;5055728;28;20042;-95
2023/04/26 12:07:38;;;;;;;6.10;1.50;;;11.00;58.70;;;;;;5033010;28;20079;-94
2023/04/26 12:10:34;;;;;;;8.37;1.70;;;10.90;59.40;;;;;;5068530;28;20052;-93
2023/04/26 12:13:01;;;;;;;8.77;1.70;;;10.50;59.00;;;;;;5054048;28;21356;-92
2023/04/26 12:15:32;;;;;;;5.30;1.60;;;10.30;60.20;;;;;;5045809;28;20882;-94
2023/04/26 12:18:01;;;;;;;5.68;1.92;;;10.20;60.70;;;;;;5052026;28;20055;-90
2023/04/26 12:20:32;;;;;;;3.87;1.10;;;10.20;61.20;;;;;;5058970;28;20083;-94
2023/04/26 12:22:59;;;;;;;5.13;1.42;;;10.10;60.00;;;;;;5040564;28;20036;-92
2023/04/26 12:25:24;;;;;;;7.80;1.20;;;10.00;60.50;;;;;;5043448;28;20048;-92
2023/04/26 12:27:53;;;;;;;5.13;1.23;;;9.80;60.20;;;;;;5046940;28;21428;-95
2023/04/26 12:30:22;;;;;;;6.57;1.40;;;9.80;60.30;;;;;;5054427;28;20044;-90
2023/04/26 12:32:51;;;;;;;4.27;1.07;;;9.70;60.30;;;;;;5049341;28;20482;-95
2023/04/26 12:35:16;;;;;;;5.30;1.47;;;9.40;58.80;;;;;;5040782;28;21192;-92
2023/04/26 12:37:43;;;;;;;10.20;1.57;;;9.40;60.50;;;;;;5041551;28;20061;-92
2023/04/26 12:40:38;;;;;;;7.27;1.40;;;9.50;60.80;;;;;;5063684;28;20054;-94
2023/04/26 12:43:03;;;;;;;7.60;1.43;;;9.60;61.00;;;;;;5011486;28;20056;-89
2023/04/26 12:45:30;;;;;;;8.13;1.60;;;9.60;61.10;;;;;;5047621;28;20060;-91
2023/04/26 12:47:55;;;;;;;6.97;1.80;;;9.60;61.00;;;;;;5063989;28;20093;-93
2023/04/26 12:50:21;;;;;;;9.40;1.80;;;9.60;61.00;;;;;;5047443;28;20040;-91
2023/04/26 12:52:50;;;;;;;7.30;1.67;;;9.60;60.90;;;;;;5047154;28;20048;-93
2023/04/26 12:55:16;;;;;;;5.90;1.47;;;9.70;60.00;;;;;;5046696;28;20072;-92
2023/04/26 12:58:02;;;;;;;6.60;1.30;;;9.80;60.50;;;;;;5054862;28;20171;-95
2023/04/26 13:00:28;;;;;;;5.80;1.30;;;10.00;58.90;;;;;;5050761;28;20109;-92
2023/04/26 13:02:54;;;;;;;6.83;1.93;;;10.20;60.30;;;;;;5073631;28;20040;-90
2023/04/26 13:05:27;;;;;;;5.47;1.47;;;10.40;60.40;;;;;;5041187;28;20162;-93
2023/04/26 13:07:53;;;;;;;5.83;1.40;;;10.50;59.70;;;;;;5011457;28;20181;-93
2023/04/26 13:10:19;;;;;;;5.20;1.53;;;10.40;57.80;;;;;;5045128;28;20786;-93
2023/04/26 13:12:45;;;;;;;7.00;1.93;;;10.40;59.50;;;;;;5046380;28;20047;-91
2023/04/26 13:15:11;;;;;;;8.47;1.50;;;10.30;59.70;;;;;;5065705;28;20063;-92
2023/04/26 13:17:41;;;;;;;7.87;1.60;;;10.40;60.00;;;;;;5033784;28;20056;-94
2023/04/26 13:20:11;;;;;;;8.10;2.00;;;10.40;59.80;;;;;;5065548;28;20060;-96
2023/04/26 13:22:44;;;;;;;8.10;1.70;;;10.20;57.60;;;;;;5035420;28;20608;-93
2023/04/26 13:25:37;;;;;;;10.27;1.90;;;9.80;57.90;;;;;;5042208;28;20063;-94
2023/04/26 13:28:03;;;;;;;5.97;1.60;;;9.80;59.00;;;;;;5062796;28;20062;-93
2023/04/26 13:30:30;;;;;;;8.03;1.80;;;9.90;59.70;;;;;;5053390;28;20063;-95
2023/04/26 13:32:58;;;;;;;7.87;1.93;;;9.80;59.70;;;;;;5058477;28;20099;-91
2023/04/26 13:35:27;;;;;;;11.10;2.50;;;9.80;59.60;;;;;;5047486;28;20059;-95
2023/04/26 13:37:55;;;;;;;9.47;1.60;;;9.60;59.60;;;;;;5031905;28;20040;-94
2023/04/26 13:40:21;;;;;;;5.73;1.70;;;9.40;59.10;;;;;;5034192;28;20075;-90
2023/04/26 13:42:50;;;;;;;10.97;2.07;;;9.40;59.80;;;;;;5039553;28;20388;-92
2023/04/26 13:45:21;;;;;;;7.10;1.90;;;9.30;60.10;;;;;;5034038;28;20056;-94
2023/04/26 13:47:47;;;;;;;9.03;2.00;;;9.20;60.30;;;;;;5026375;28;20040;-92
2023/04/26 13:50:13;;;;;;;8.43;1.77;;;9.00;60.60;;;;;;5047337;28;20561;-93
2023/04/26 13:52:39;;;;;;;3.63;2.10;;;8.90;60.50;;;;;;5066356;28;20109;-93
2023/04/26 13:55:11;;;;;;;11.27;2.00;;;8.80;61.10;;;;;;5046709;28;20051;-94
2023/04/26 13:57:37;;;;;;;5.30;1.80;;;8.60;61.30;;;;;;5044277;28;20171;-95
2023/04/26 14:00:06;;;;;;;7.73;2.10;;;8.50;61.10;;;;;;5048142;28;20051;-94
2023/04/26 14:02:32;;;;;;;7.17;1.80;;;8.40;61.30;;;;;;5050664;28;20040;-93
2023/04/26 14:05:01;;;;;;;9.70;2.10;;;8.30;61.50;;;;;;5023287;28;20118;-93
2023/04/26 14:07:35;;;;;;;6.60;1.87;;;8.30;60.80;;;;;;5024380;28;20119;-96
2023/04/26 14:10:08;;;;;;;9.40;2.17;;;8.10;61.30;;;;;;5041206;28;20155;-93
2023/04/26 14:12:37;;;;;;;6.60;1.70;;;8.10;61.60;;;;;;5055414;28;20047;-93
2023/04/26 14:15:11;;;;;;;8.20;1.83;;;8.20;62.00;;;;;;5056478;28;20048;-93
2023/04/26 14:17:45;;;;;;;7.60;2.30;;;8.20;61.80;;;;;;5050830;28;20071;-94
2023/04/26 14:20:14;;;;;;;5.90;1.70;;;8.20;60.80;;;;;;5061010;28;20074;-95
2023/04/26 14:26:27;;;;;;;6.87;2.13;;;8.10;60.80;;;;;;4968199;28;20675;-95
2023/04/26 14:32:35;;;;;;;11.87;2.07;;;8.00;61.50;;;;;;5004306;28;20109;-95
2023/04/26 14:35:04;;;;;;;9.63;1.77;;;8.00;61.50;;;;;;4960374;28;20188;-93
2023/04/26 14:37:42;;;;;;;8.77;2.20;;;8.00;61.70;;;;;;4964637;28;20088;-94
2023/04/26 14:40:24;;;;;;;6.70;2.20;;;8.00;61.20;;;;;;5002566;28;20049;-95
2023/04/26 14:43:07;;;;;;;6.70;1.60;;;7.80;60.10;;;;;;4975287;28;20049;-96
2023/04/26 14:45:45;;;;;;;7.67;2.13;;;8.00;60.50;;;;;;5005870;28;20056;-95
2023/04/26 14:48:11;;;;;;;8.37;2.33;;;8.00;61.60;;;;;;5034721;28;20048;-92
2023/04/26 14:50:37;;;;;;;10.43;2.60;;;8.10;62.40;;;;;;5032580;28;20121;-93
2023/04/26 14:53:03;;;;;;;4.53;2.03;;;8.10;63.00;;;;;;5033209;28;20055;-92
2023/04/26 14:55:29;;;;;;;9.50;2.17;;;8.20;63.50;;;;;;5067542;28;20078;-93
2023/04/26 14:57:55;;;;;;;6.40;2.00;;;8.20;63.60;;;;;;5047087;28;20488;-92
2023/04/26 15:00:24;;;;;;;6.87;1.97;;;8.10;63.60;;;;;;5051536;28;20145;-95
2023/04/26 15:02:50;;;;;;;4.90;1.70;;;8.10;63.70;;;;;;5056644;28;20159;-94
2023/04/26 15:05:16;;;;;;;5.80;1.87;;;8.10;63.70;;;;;;5051296;28;20040;-92
2023/04/26 15:07:41;;;;;;;4.27;1.77;;;8.10;63.50;;;;;;5067472;28;20131;-93
2023/04/26 15:10:10;;;;;;;4.20;1.70;;;8.00;63.70;;;;;;5052400;28;20055;-94
2023/04/26 15:12:36;;;;;;;2.87;1.57;;;8.00;63.70;;;;;;5060741;28;20036;-92
2023/04/26 15:15:05;;;;;;;4.70;1.37;;;8.00;63.70;;;;;;5032893;28;20066;-90
2023/04/26 15:17:37;;;;;;;6.33;1.83;;;7.90;63.20;;;;;;5010291;28;20046;-91
2023/04/26 15:20:05;;;;;;;5.10;1.70;;;7.80;63.40;;;;;;4987635;28;20046;-90
2023/04/26 15:22:32;;;;;;;5.50;2.10;;;7.80;63.20;;;;;;5009261;28;20490;-90
2023/04/26 15:24:58;;;;;;;5.43;2.30;;;7.80;63.30;;;;;;5063934;28;20082;-88
2023/04/26 15:27:24;;;;;;;3.77;1.73;;;7.90;63.40;;;;;;5046269;28;20075;-90
2023/04/26 15:29:50;;;;;;;6.77;2.00;;;7.90;63.60;;;;;;5075723;28;20601;-90
2023/04/26 15:32:15;;;;;;;9.03;1.90;;;8.00;63.70;;;;;;5061547;28;20361;-90
2023/04/26 15:34:43;;;;;;;6.40;1.83;;;7.90;63.40;;;;;;5037051;28;20044;-89
2023/04/26 15:37:09;;;;;;;8.77;2.07;;;7.90;63.70;;;;;;5073345;28;20067;-88
2023/04/26 15:39:36;;;;;;;6.17;1.83;;;8.10;63.90;;;;;;5048061;28;20066;-88
2023/04/26 15:42:08;;;;;;;7.97;2.00;;;8.20;63.50;;;;;;5047491;28;20059;-93
2023/04/26 15:44:52;;;;;;;9.63;2.17;;;8.30;63.60;;;;;;5036838;28;20048;-93
2023/04/26 15:47:17;;;;;;;6.03;1.90;;;8.50;63.70;;;;;;5062949;28;20044;-90
2023/04/26 15:49:43;;;;;;;6.57;2.13;;;8.60;63.50;;;;;;5033769;28;20091;-88
2023/04/26 15:52:09;;;;;;;6.60;2.03;;;8.60;63.20;;;;;;5065555;28;20066;-89
2023/04/26 15:54:35;;;;;;;6.33;2.20;;;8.60;63.30;;;;;;5042763;28;20595;-88
2023/04/26 15:57:02;;;;;;;8.93;2.20;;;8.60;63.90;;;;;;5066559;28;20048;-90
2023/04/26 15:59:32;;;;;;;5.63;2.33;;;8.50;63.70;;;;;;5052285;28;20054;-89
2023/04/26 16:01:57;;;;;;;9.07;1.90;;;8.50;63.40;;;;;;5069488;28;20844;-89
2023/04/26 16:04:23;;;;;;;10.20;2.20;;;8.40;62.80;;;;;;5033161;28;20059;-92
2023/04/26 16:06:49;;;;;;;11.50;2.40;;;8.50;62.80;;;;;;5067189;28;20755;-92
2023/04/26 16:09:18;;;;;;;4.50;1.87;;;8.60;62.00;;;;;;5041760;28;20076;-88
2023/04/26 16:11:44;;;;;;;5.43;1.63;;;8.60;62.30;;;;;;5076496;28;20514;-89
2023/04/26 16:14:10;;;;;;;4.80;1.60;;;8.80;61.80;;;;;;5062336;28;20154;-89
2023/04/26 16:16:36;;;;;;;3.60;1.30;;;8.90;61.60;;;;;;5054428;28;20511;-91
2023/04/26 16:19:05;;;;;;;7.80;1.57;;;9.00;61.00;;;;;;5068856;28;20060;-89
2023/04/26 16:21:34;;;;;;;4.90;1.80;;;9.00;60.90;;;;;;5068838;28;20043;-89
2023/04/26 16:24:00;;;;;;;5.07;1.60;;;9.20;60.40;;;;;;5042416;28;20044;-91
2023/04/26 16:26:26;;;;;;;6.57;1.80;;;9.20;60.60;;;;;;5062311;28;20032;-90
2023/04/26 16:28:53;;;;;;;9.63;2.07;;;9.40;60.50;;;;;;5040434;28;20044;-90
2023/04/26 16:31:20;;;;;;;5.90;2.00;;;9.40;60.70;;;;;;5056712;28;20040;-90
2023/04/26 16:33:47;;;;;;;8.90;1.77;;;9.40;60.80;;;;;;5035947;28;20045;-88
2023/04/26 16:36:12;;;;;;;6.63;1.83;;;9.40;60.70;;;;;;5044151;28;20040;-90
2023/04/26 16:38:38;;;;;;;4.67;1.50;;;9.30;60.00;;;;;;5070986;28;20071;-90
2023/04/26 16:41:07;;;;;;;9.67;2.07;;;9.20;60.10;;;;;;5052673;28;20131;-91
2023/04/26 16:43:32;;;;;;;6.90;1.67;;;9.00;60.20;;;;;;5078690;28;20032;-91
2023/04/26 16:46:03;;;;;;;7.37;2.03;;;8.90;60.10;;;;;;5067426;28;20044;-90
2023/04/26 16:48:30;;;;;;;7.63;2.17;;;8.90;60.40;;;;;;5043252;28;20124;-88
2023/04/26 16:50:56;;;;;;;6.77;1.87;;;8.90;60.20;;;;;;5056964;28;20040;-89
2023/04/26 16:53:24;;;;;;;10.23;1.87;;;8.80;60.00;;;;;;5056649;28;20131;-92
2023/04/26 16:55:51;;;;;;;7.50;1.73;;;8.70;60.00;;;;;;5073739;28;20091;-89
2023/04/26 16:58:17;;;;;;;9.90;1.90;;;8.60;60.00;;;;;;5029199;28;20048;-90
2023/04/26 17:00:46;;;;;;;6.53;2.00;;;8.50;60.20;;;;;;5073168;28;20059;-91
2023/04/26 17:03:11;;;;;;;7.60;1.97;;;8.30;60.50;;;;;;5055553;28;20037;-87
2023/04/26 17:05:42;;;;;;;4.57;2.03;;;8.30;60.60;;;;;;5043971;28;20047;-89
2023/04/26 17:08:08;;;;;;;8.33;2.00;;;8.20;60.70;;;;;;5051377;28;20077;-89
2023/04/26 17:10:38;;;;;;;4.93;1.47;;;8.20;60.80;;;;;;5056316;28;20044;-90
2023/04/26 17:13:05;;;;;;;5.63;1.70;;;8.10;60.80;;;;;;5038079;28;20044;-90
2023/04/26 17:15:34;;;;;;;5.17;1.57;;;8.00;60.70;;;;;;5064268;28;20071;-88
2023/04/26 17:18:03;;;;;;;7.27;1.87;;;7.80;61.00;;;;;;5053888;28;20072;-90